Time,TemperatureF,DewpointF,PressureIn,WindDirection,WindDirectionDegrees,WindSpeedMPH,WindSpeedGustMPH,Humidity,HourlyPrecipIn,Conditions,Clouds,dailyrainin,SoftwareType,DateUTC
2013-02-14 00:00:00,50.0,43.0,30.05,North,360,17.0,20.0,76,-99.99,,,-99.99,,2013-02-14 06:00:00,
2013-02-14 00:21:00,50.0,43.0,30.05,North,360,17.0,20.0,76,-99.99,,,-99.99,,2013-02-14 06:21:00,
2013-02-14 00:31:00,50.0,43.0,30.05,North,360,17.0,20.0,76,-99.99,,,-99.99,,2013-02-14 06:31:00,
2013-02-14 00:41:00,50.0,43.0,30.05,North,360,17.0,20.0,76,-99.99,,,-99.99,,2013-02-14 06:41:00,
2013-02-14 00:51:00,50.0,43.0,30.05,North,360,17.0,20.0,76,-99.99,,,-99.99,,2013-02-14 06:51:00,
2013-02-14 01:00:00,49.0,43.0,30.03,NNE,30,17.0,18.0,79,-99.99,,,-99.99,,2013-02-14 07:00:00,
2013-02-14 01:21:00,49.0,43.0,30.03,NNE,30,17.0,18.0,79,-99.99,,,-99.99,,2013-02-14 07:21:00,
2013-02-14 01:31:00,49.0,43.0,30.03,NNE,30,17.0,18.0,79,-99.99,,,-99.99,,2013-02-14 07:31:00,
2013-02-14 01:41:00,49.0,43.0,30.03,NNE,30,17.0,18.0,79,-99.99,,,-99.99,,2013-02-14 07:41:00,
2013-02-14 01:51:00,49.0,43.0,30.03,NNE,30,17.0,18.0,79,-99.99,,,-99.99,,2013-02-14 07:51:00,
2013-02-14 02:00:00,49.0,39.0,30.04,North,10,16.0,21.0,69,-99.99,,,-99.99,,2013-02-14 08:00:00,
2013-02-14 02:21:00,49.0,39.0,30.04,North,10,16.0,21.0,69,-99.99,,,-99.99,,2013-02-14 08:21:00,
2013-02-14 02:31:00,49.0,39.0,30.04,North,10,16.0,21.0,69,-99.99,,,-99.99,,2013-02-14 08:31:00,
2013-02-14 02:43:00,49.0,39.0,30.04,North,10,16.0,21.0,69,-99.99,,,-99.99,,2013-02-14 08:43:00,
2013-02-14 02:52:00,49.0,39.0,30.04,North,10,16.0,21.0,69,-99.99,,,-99.99,,2013-02-14 08:52:00,
2013-02-14 03:00:00,48.0,39.0,30.04,NNE,20,16.0,17.0,69,-99.99,,,-99.99,,2013-02-14 09:00:00,
2013-02-14 03:21:00,48.0,39.0,30.04,NNE,20,16.0,17.0,69,-99.99,,,-99.99,,2013-02-14 09:21:00,
2013-02-14 03:31:00,48.0,39.0,30.04,NNE,20,16.0,17.0,69,-99.99,,,-99.99,,2013-02-14 09:31:00,
2013-02-14 03:41:00,48.0,39.0,30.04,NNE,20,16.0,17.0,69,-99.99,,,-99.99,,2013-02-14 09:41:00,
2013-02-14 03:51:00,48.0,39.0,30.04,NNE,20,16.0,17.0,69,-99.99,,,-99.99,,2013-02-14 09:51:00,
2013-02-14 04:00:00,49.0,39.0,30.04,North,10,18.0,22.0,69,-99.99,,,-99.99,,2013-02-14 10:00:00,
2013-02-14 04:21:00,49.0,39.0,30.04,North,10,18.0,22.0,69,-99.99,,,-99.99,,2013-02-14 10:21:00,
2013-02-14 04:31:00,49.0,39.0,30.04,North,10,18.0,22.0,69,-99.99,,,-99.99,,2013-02-14 10:31:00,
2013-02-14 04:41:00,49.0,39.0,30.04,North,10,18.0,22.0,69,-99.99,,,-99.99,,2013-02-14 10:41:00,
2013-02-14 04:52:00,49.0,39.0,30.04,North,10,18.0,22.0,69,-99.99,,,-99.99,,2013-02-14 10:52:00,
2013-02-14 05:00:00,48.0,41.0,30.07,NNE,20,13.0,15.0,77,-99.99,,,-99.99,,2013-02-14 11:00:00,
2013-02-14 05:21:00,48.0,41.0,30.07,NNE,20,13.0,15.0,77,-99.99,,,-99.99,,2013-02-14 11:21:00,
2013-02-14 05:31:00,48.0,41.0,30.07,NNE,20,13.0,15.0,77,-99.99,,,-99.99,,2013-02-14 11:31:00,
2013-02-14 05:41:00,48.0,41.0,30.07,NNE,20,13.0,15.0,77,-99.99,,,-99.99,,2013-02-14 11:41:00,
2013-02-14 05:51:00,48.0,41.0,30.07,NNE,20,13.0,15.0,77,-99.99,,,-99.99,,2013-02-14 11:51:00,
2013-02-14 06:00:00,47.0,41.0,30.08,North,10,14.0,15.0,79,-99.99,,,-99.99,,2013-02-14 12:00:00,
2013-02-14 06:21:00,47.0,41.0,30.08,North,10,14.0,15.0,79,-99.99,,,-99.99,,2013-02-14 12:21:00,
2013-02-14 06:31:00,47.0,41.0,30.08,North,10,14.0,15.0,79,-99.99,,,-99.99,,2013-02-14 12:31:00,
2013-02-14 06:41:00,47.0,41.0,30.08,North,10,14.0,15.0,79,-99.99,,,-99.99,,2013-02-14 12:41:00,
2013-02-14 06:53:00,47.0,41.0,30.08,North,10,14.0,15.0,79,-99.99,,,-99.99,,2013-02-14 12:53:00,
2013-02-14 07:00:00,47.0,42.0,30.10,North,10,15.0,17.0,83,-99.99,,,-99.99,,2013-02-14 13:00:00,
2013-02-14 07:21:00,47.0,42.0,30.10,North,10,15.0,17.0,83,-99.99,,,-99.99,,2013-02-14 13:21:00,
2013-02-14 07:31:00,47.0,42.0,30.10,North,10,15.0,17.0,83,-99.99,,,-99.99,,2013-02-14 13:31:00,
2013-02-14 07:41:00,47.0,42.0,30.10,North,10,15.0,17.0,83,-99.99,,,-99.99,,2013-02-14 13:41:00,
2013-02-14 07:51:00,47.0,42.0,30.10,North,10,15.0,17.0,83,-99.99,,,-99.99,,2013-02-14 13:51:00,
2013-02-14 08:00:00,46.0,41.0,30.14,NNE,20,15.0,17.0,83,-99.99,,,-99.99,,2013-02-14 14:00:00,
2013-02-14 08:21:00,46.0,41.0,30.14,NNE,20,15.0,17.0,83,-99.99,,,-99.99,,2013-02-14 14:21:00,
2013-02-14 08:31:00,46.0,41.0,30.14,NNE,20,15.0,17.0,83,-99.99,,,-99.99,,2013-02-14 14:31:00,
2013-02-14 08:41:00,46.0,41.0,30.14,NNE,20,15.0,17.0,83,-99.99,,,-99.99,,2013-02-14 14:41:00,
2013-02-14 08:52:00,46.0,41.0,30.14,NNE,20,15.0,17.0,83,-99.99,,,-99.99,,2013-02-14 14:52:00,
2013-02-14 09:00:00,46.0,41.0,30.14,North,10,16.0,18.0,80,-99.99,,,-99.99,,2013-02-14 15:00:00,
2013-02-14 09:21:00,46.0,41.0,30.14,North,10,16.0,18.0,80,-99.99,,,-99.99,,2013-02-14 15:21:00,
2013-02-14 09:31:00,46.0,41.0,30.14,North,10,16.0,18.0,80,-99.99,,,-99.99,,2013-02-14 15:31:00,
2013-02-14 09:41:00,46.0,41.0,30.14,North,10,16.0,18.0,80,-99.99,,,-99.99,,2013-02-14 15:41:00,
2013-02-14 09:51:00,46.0,41.0,30.14,North,10,16.0,18.0,80,-99.99,,,-99.99,,2013-02-14 15:51:00,
2013-02-14 10:00:00,46.0,40.0,30.16,NE,40,10.0,11.0,77,-99.99,,,-99.99,,2013-02-14 16:00:00,
2013-02-14 10:21:00,46.0,40.0,30.16,NE,40,10.0,11.0,77,-99.99,,,-99.99,,2013-02-14 16:21:00,
2013-02-14 10:31:00,46.0,40.0,30.16,NE,40,10.0,11.0,77,-99.99,,,-99.99,,2013-02-14 16:31:00,
2013-02-14 10:41:00,46.0,40.0,30.16,NE,40,10.0,11.0,77,-99.99,,,-99.99,,2013-02-14 16:41:00,
2013-02-14 10:51:00,46.0,40.0,30.16,NE,40,10.0,11.0,77,-99.99,,,-99.99,,2013-02-14 16:51:00,
2013-02-14 11:00:00,47.0,40.0,30.15,NNE,20,9.0,10.0,75,-99.99,,,-99.99,,2013-02-14 17:00:00,
2013-02-14 11:21:00,47.0,40.0,30.15,NNE,20,9.0,10.0,75,-99.99,,,-99.99,,2013-02-14 17:21:00,
2013-02-14 11:31:00,47.0,40.0,30.15,NNE,20,9.0,10.0,75,-99.99,,,-99.99,,2013-02-14 17:31:00,
2013-02-14 11:41:00,47.0,40.0,30.15,NNE,20,9.0,10.0,75,-99.99,,,-99.99,,2013-02-14 17:41:00,
2013-02-14 11:52:00,47.0,40.0,30.15,NNE,20,9.0,10.0,75,-99.99,,,-99.99,,2013-02-14 17:52:00,
2013-02-14 12:00:00,48.0,39.0,30.12,NE,40,9.0,10.0,72,-99.99,,,-99.99,,2013-02-14 18:00:00,
2013-02-14 12:22:00,48.0,39.0,30.12,NE,40,9.0,10.0,72,-99.99,,,-99.99,,2013-02-14 18:22:00,
2013-02-14 12:31:00,48.0,39.0,30.12,NE,40,9.0,10.0,72,-99.99,,,-99.99,,2013-02-14 18:31:00,
2013-02-14 12:41:00,48.0,39.0,30.12,NE,40,9.0,10.0,72,-99.99,,,-99.99,,2013-02-14 18:41:00,
2013-02-14 12:51:00,48.0,39.0,30.12,NE,40,9.0,10.0,72,-99.99,,,-99.99,,2013-02-14 18:51:00,
2013-02-14 13:00:00,48.0,40.0,30.09,North,10,7.0,9.0,71,-99.99,,,-99.99,,2013-02-14 19:00:00,
2013-02-14 13:21:00,48.0,40.0,30.09,North,10,7.0,9.0,71,-99.99,,,-99.99,,2013-02-14 19:21:00,
2013-02-14 13:31:00,48.0,40.0,30.09,North,10,7.0,9.0,71,-99.99,,,-99.99,,2013-02-14 19:31:00,
2013-02-14 13:41:00,48.0,40.0,30.09,North,10,7.0,9.0,71,-99.99,,,-99.99,,2013-02-14 19:41:00,
2013-02-14 13:51:00,48.0,40.0,30.09,North,10,7.0,9.0,71,-99.99,,,-99.99,,2013-02-14 19:51:00,
2013-02-14 14:00:00,49.0,41.0,30.08,North,360,6.0,8.0,74,-99.99,,,-99.99,,2013-02-14 20:00:00,
2013-02-14 14:21:00,49.0,41.0,30.08,North,360,6.0,8.0,74,-99.99,,,-99.99,,2013-02-14 20:21:00,
2013-02-14 14:31:00,49.0,41.0,30.08,North,360,6.0,8.0,74,-99.99,,,-99.99,,2013-02-14 20:31:00,
2013-02-14 14:41:00,49.0,41.0,30.08,North,360,6.0,8.0,74,-99.99,,,-99.99,,2013-02-14 20:41:00,
2013-02-14 14:51:00,49.0,41.0,30.08,North,360,6.0,8.0,74,-99.99,,,-99.99,,2013-02-14 20:51:00,
2013-02-14 15:00:00,51.0,41.0,30.06,North,10,8.0,9.0,69,-99.99,,,-99.99,,2013-02-14 21:00:00,
2013-02-14 15:21:00,51.0,41.0,30.06,North,10,8.0,9.0,69,-99.99,,,-99.99,,2013-02-14 21:21:00,
2013-02-14 15:31:00,51.0,41.0,30.06,North,10,8.0,9.0,69,-99.99,,,-99.99,,2013-02-14 21:31:00,
2013-02-14 15:41:00,51.0,41.0,30.06,North,10,8.0,9.0,69,-99.99,,,-99.99,,2013-02-14 21:41:00,
2013-02-14 15:51:00,51.0,41.0,30.06,North,10,8.0,9.0,69,-99.99,,,-99.99,,2013-02-14 21:51:00,
2013-02-14 16:00:00,53.0,40.0,30.05,NNE,20,8.0,10.0,60,-99.99,,,-99.99,,2013-02-14 22:00:00,
2013-02-14 16:21:00,53.0,40.0,30.05,NNE,20,8.0,10.0,60,-99.99,,,-99.99,,2013-02-14 22:21:00,
2013-02-14 16:31:00,53.0,40.0,30.05,NNE,20,8.0,10.0,60,-99.99,,,-99.99,,2013-02-14 22:31:00,
2013-02-14 16:41:00,53.0,40.0,30.05,NNE,20,8.0,10.0,60,-99.99,,,-99.99,,2013-02-14 22:41:00,
2013-02-14 16:51:00,53.0,40.0,30.05,NNE,20,8.0,10.0,60,-99.99,,,-99.99,,2013-02-14 22:51:00,
2013-02-14 17:00:00,54.0,43.0,30.04,NNE,20,8.0,9.0,64,-99.99,,,-99.99,,2013-02-14 23:00:00,
2013-02-14 17:21:00,54.0,43.0,30.04,NNE,20,8.0,9.0,64,-99.99,,,-99.99,,2013-02-14 23:21:00,
2013-02-14 17:31:00,54.0,43.0,30.04,NNE,20,8.0,9.0,64,-99.99,,,-99.99,,2013-02-14 23:31:00,
2013-02-14 17:41:00,54.0,43.0,30.04,NNE,20,8.0,9.0,64,-99.99,,,-99.99,,2013-02-14 23:41:00,
2013-02-14 17:51:00,54.0,43.0,30.04,NNE,20,8.0,9.0,64,-99.99,,,-99.99,,2013-02-14 23:51:00,
2013-02-14 18:00:00,55.0,42.0,30.06,North,360,9.0,10.0,60,-99.99,,,-99.99,,2013-02-15 00:00:00,
2013-02-14 18:21:00,55.0,42.0,30.06,North,360,9.0,10.0,60,-99.99,,,-99.99,,2013-02-15 00:21:00,
2013-02-14 18:31:00,55.0,42.0,30.06,North,360,9.0,10.0,60,-99.99,,,-99.99,,2013-02-15 00:31:00,
2013-02-14 18:41:00,55.0,42.0,30.06,North,360,9.0,10.0,60,-99.99,,,-99.99,,2013-02-15 00:41:00,
2013-02-14 18:51:00,55.0,42.0,30.06,North,360,9.0,10.0,60,-99.99,,,-99.99,,2013-02-15 00:51:00,
2013-02-14 19:00:00,55.0,44.0,30.08,NW,320,8.0,9.0,66,-99.99,,,-99.99,,2013-02-15 01:00:00,
2013-02-14 19:21:00,55.0,44.0,30.08,NW,320,8.0,9.0,66,-99.99,,,-99.99,,2013-02-15 01:21:00,
2013-02-14 19:31:00,55.0,44.0,30.08,NW,320,8.0,9.0,66,-99.99,,,-99.99,,2013-02-15 01:31:00,
2013-02-14 19:41:00,55.0,44.0,30.08,NW,320,8.0,9.0,66,-99.99,,,-99.99,,2013-02-15 01:41:00,
2013-02-14 19:51:00,55.0,44.0,30.08,NW,320,8.0,9.0,66,-99.99,,,-99.99,,2013-02-15 01:51:00,
2013-02-14 20:00:00,54.0,44.0,30.09,NNE,20,7.0,8.0,68,-99.99,,,-99.99,,2013-02-15 02:00:00,
2013-02-14 20:21:00,54.0,44.0,30.09,NNE,20,7.0,8.0,68,-99.99,,,-99.99,,2013-02-15 02:21:00,
2013-02-14 20:31:00,54.0,44.0,30.09,NNE,20,7.0,8.0,68,-99.99,,,-99.99,,2013-02-15 02:31:00,
2013-02-14 20:41:00,54.0,44.0,30.09,NNE,20,7.0,8.0,68,-99.99,,,-99.99,,2013-02-15 02:41:00,
2013-02-14 20:51:00,54.0,44.0,30.09,NNE,20,7.0,8.0,68,-99.99,,,-99.99,,2013-02-15 02:51:00,
2013-02-14 21:00:00,54.0,45.0,30.09,North,360,6.0,7.0,69,-99.99,,,-99.99,,2013-02-15 03:00:00,
2013-02-14 21:21:00,54.0,45.0,30.09,North,360,6.0,7.0,69,-99.99,,,-99.99,,2013-02-15 03:21:00,
2013-02-14 21:31:00,54.0,45.0,30.09,North,360,6.0,7.0,69,-99.99,,,-99.99,,2013-02-15 03:31:00,
2013-02-14 21:41:00,54.0,45.0,30.09,North,360,6.0,7.0,69,-99.99,,,-99.99,,2013-02-15 03:41:00,
2013-02-14 21:51:00,54.0,45.0,30.09,North,360,6.0,7.0,69,-99.99,,,-99.99,,2013-02-15 03:51:00,
2013-02-14 22:00:00,55.0,42.0,30.10,NNE,30,9.0,10.0,62,-99.99,,,-99.99,,2013-02-15 04:00:00,
2013-02-14 22:21:00,55.0,42.0,30.10,NNE,30,9.0,10.0,62,-99.99,,,-99.99,,2013-02-15 04:21:00,
2013-02-14 22:31:00,55.0,42.0,30.10,NNE,30,9.0,10.0,62,-99.99,,,-99.99,,2013-02-15 04:31:00,
2013-02-14 22:41:00,55.0,42.0,30.10,NNE,30,9.0,10.0,62,-99.99,,,-99.99,,2013-02-15 04:41:00,
2013-02-14 22:51:00,55.0,42.0,30.10,NNE,30,9.0,10.0,62,-99.99,,,-99.99,,2013-02-15 04:51:00,
2013-02-14 23:00:00,55.0,43.0,30.09,NNE,20,6.0,7.0,63,-99.99,,,-99.99,,2013-02-15 05:00:00,
2013-02-14 23:22:00,55.0,43.0,30.09,NNE,20,6.0,7.0,63,-99.99,,,-99.99,,2013-02-15 05:22:00,
2013-02-14 23:32:00,55.0,43.0,30.09,NNE,20,6.0,7.0,63,-99.99,,,-99.99,,2013-02-15 05:32:00,
2013-02-14 23:41:00,55.0,43.0,30.09,NNE,20,6.0,7.0,63,-99.99,,,-99.99,,2013-02-15 05:41:00,
2013-02-14 23:51:00,55.0,43.0,30.09,NNE,20,6.0,7.0,63,-99.99,,,-99.99,,2013-02-15 05:51:00,